DECLE EDFM-EDDS
Flight info
| Callsign | DECLE |
|---|---|
| Flight time | 0h 33m |
| Altitude | 5000 |
| Route | NA |
| Aircraft | C152/L-DOV/C |
Departure
| Time | 2026-05-08 19:06 |
|---|---|
| Airport | Mannheim-City Airport (EDFM) |
Arrival
| Time | 2026-05-08 19:39 |
|---|---|
| Airport | Stuttgart Airport (EDDS) |
| Time | Latitude | Longitude | Altitude | Speed | Heading |
|---|---|---|---|---|---|
| 2026-05-08 19:06 | 49.30491 | 8.51290 | 1840 ft | 84 kts | 109° |
| 2026-05-08 19:06 | 49.30198 | 8.52075 | 1953 ft | 88 kts | 118° |
| 2026-05-08 19:06 | 49.29791 | 8.52759 | 2127 ft | 89 kts | 141° |
| 2026-05-08 19:07 | 49.29180 | 8.53053 | 2286 ft | 95 kts | 167° |
| 2026-05-08 19:07 | 49.28518 | 8.53034 | 2489 ft | 96 kts | 180° |
| 2026-05-08 19:07 | 49.27858 | 8.52930 | 2589 ft | 95 kts | 167° |
| 2026-05-08 19:07 | 49.27259 | 8.53262 | 2701 ft | 90 kts | 145° |
| 2026-05-08 19:08 | 49.26682 | 8.53650 | 2806 ft | 94 kts | 160° |
| 2026-05-08 19:08 | 49.26019 | 8.53674 | 2889 ft | 100 kts | 183° |
| 2026-05-08 19:08 | 49.25352 | 8.53450 | 3006 ft | 97 kts | 187° |
| 2026-05-08 19:08 | 49.24677 | 8.53325 | 3139 ft | 96 kts | 172° |
| 2026-05-08 19:09 | 49.24042 | 8.53493 | 3340 ft | 90 kts | 161° |
| 2026-05-08 19:09 | 49.23428 | 8.53723 | 3431 ft | 94 kts | 162° |
| 2026-05-08 19:09 | 49.22787 | 8.53764 | 3596 ft | 93 kts | 182° |
| 2026-05-08 19:09 | 49.22140 | 8.53546 | 3682 ft | 95 kts | 193° |
| 2026-05-08 19:10 | 49.21482 | 8.53340 | 3775 ft | 97 kts | 181° |
| 2026-05-08 19:10 | 49.20799 | 8.53293 | 3840 ft | 100 kts | 181° |
| 2026-05-08 19:10 | 49.20104 | 8.53057 | 3870 ft | 104 kts | 195° |
| 2026-05-08 19:10 | 49.19410 | 8.52768 | 3898 ft | 103 kts | 182° |
| 2026-05-08 19:11 | 49.18719 | 8.52697 | 3975 ft | 99 kts | 174° |
| 2026-05-08 19:11 | 49.18036 | 8.52769 | 4021 ft | 100 kts | 168° |
| 2026-05-08 19:11 | 49.17342 | 8.52964 | 4043 ft | 102 kts | 167° |
| 2026-05-08 19:11 | 49.16634 | 8.53146 | 4060 ft | 106 kts | 169° |
| 2026-05-08 19:12 | 49.15915 | 8.53240 | 4082 ft | 103 kts | 174° |
| 2026-05-08 19:12 | 49.15182 | 8.53199 | 4024 ft | 107 kts | 182° |
| 2026-05-08 19:12 | 49.14459 | 8.53007 | 4018 ft | 106 kts | 185° |
| 2026-05-08 19:12 | 49.13731 | 8.52983 | 4025 ft | 103 kts | 172° |
| 2026-05-08 19:13 | 49.13011 | 8.53051 | 4053 ft | 103 kts | 167° |
| 2026-05-08 19:13 | 49.12335 | 8.53367 | 4069 ft | 101 kts | 154° |
| 2026-05-08 19:13 | 49.11689 | 8.53760 | 4059 ft | 103 kts | 157° |
| 2026-05-08 19:13 | 49.10997 | 8.54040 | 4075 ft | 102 kts | 165° |
| 2026-05-08 19:14 | 49.10292 | 8.54205 | 4090 ft | 103 kts | 170° |
| 2026-05-08 19:14 | 49.09576 | 8.54258 | 4100 ft | 103 kts | 178° |
| 2026-05-08 19:14 | 49.08855 | 8.54105 | 4085 ft | 107 kts | 189° |
| 2026-05-08 19:14 | 49.08127 | 8.53869 | 4086 ft | 106 kts | 176° |
| 2026-05-08 19:15 | 49.07442 | 8.54155 | 4113 ft | 101 kts | 147° |
| 2026-05-08 19:15 | 49.06858 | 8.54724 | 4122 ft | 98 kts | 141° |
| 2026-05-08 19:15 | 49.06278 | 8.55309 | 4076 ft | 102 kts | 145° |
| 2026-05-08 19:15 | 49.05617 | 8.55735 | 4021 ft | 107 kts | 161° |
| 2026-05-08 19:16 | 49.04911 | 8.55954 | 4023 ft | 103 kts | 157° |
| 2026-05-08 19:16 | 49.04309 | 8.56519 | 4012 ft | 99 kts | 140° |
| 2026-05-08 19:16 | 49.03738 | 8.57112 | 3998 ft | 100 kts | 144° |
| 2026-05-08 19:16 | 49.03119 | 8.57619 | 3997 ft | 101 kts | 151° |
| 2026-05-08 19:17 | 49.02465 | 8.58021 | 4016 ft | 102 kts | 158° |
| 2026-05-08 19:17 | 49.01797 | 8.58379 | 4015 ft | 101 kts | 155° |
| 2026-05-08 19:17 | 49.01138 | 8.58753 | 4014 ft | 102 kts | 155° |
| 2026-05-08 19:17 | 49.00475 | 8.59117 | 4062 ft | 99 kts | 157° |
| 2026-05-08 19:18 | 48.99778 | 8.59282 | 4028 ft | 106 kts | 180° |
| 2026-05-08 19:18 | 48.99051 | 8.59310 | 3968 ft | 103 kts | 154° |
| 2026-05-08 19:18 | 48.98529 | 8.59988 | 3936 ft | 98 kts | 125° |
| 2026-05-08 19:18 | 48.98267 | 8.60545 | 3956 ft | 97 kts | 121° |
| 2026-05-08 19:19 | 48.97910 | 8.61412 | 3984 ft | 98 kts | 120° |
| 2026-05-08 19:19 | 48.97577 | 8.62292 | 4014 ft | 95 kts | 110° |
| 2026-05-08 19:19 | 48.97448 | 8.63276 | 4075 ft | 93 kts | 98° |
| 2026-05-08 19:19 | 48.97205 | 8.64576 | 4043 ft | 99 kts | 111° |
| 2026-05-08 19:20 | 48.96995 | 8.65196 | 4053 ft | 98 kts | 116° |
| 2026-05-08 19:20 | 48.96798 | 8.65807 | 4064 ft | 95 kts | 114° |
| 2026-05-08 19:20 | 48.96394 | 8.67011 | 3971 ft | 96 kts | 117° |
| 2026-05-08 19:20 | 48.96053 | 8.67906 | 3866 ft | 97 kts | 117° |
| 2026-05-08 19:21 | 48.95725 | 8.68796 | 3790 ft | 96 kts | 118° |
| 2026-05-08 19:21 | 48.95352 | 8.69656 | 3696 ft | 99 kts | 121° |
| 2026-05-08 19:21 | 48.94992 | 8.70517 | 3632 ft | 99 kts | 120° |
| 2026-05-08 19:21 | 48.94653 | 8.71430 | 3623 ft | 97 kts | 116° |
| 2026-05-08 19:22 | 48.94331 | 8.72302 | 3649 ft | 94 kts | 118° |
| 2026-05-08 19:22 | 48.93956 | 8.73150 | 3569 ft | 98 kts | 123° |
| 2026-05-08 19:22 | 48.93545 | 8.73965 | 3533 ft | 94 kts | 127° |
| 2026-05-08 19:22 | 48.93150 | 8.74762 | 3580 ft | 94 kts | 119° |
| 2026-05-08 19:23 | 48.92829 | 8.75623 | 3619 ft | 95 kts | 114° |
| 2026-05-08 19:23 | 48.92572 | 8.76538 | 3618 ft | 95 kts | 114° |
| 2026-05-08 19:23 | 48.92296 | 8.77468 | 3550 ft | 96 kts | 113° |
| 2026-05-08 19:23 | 48.91982 | 8.78350 | 3544 ft | 95 kts | 118° |
| 2026-05-08 19:24 | 48.91715 | 8.79244 | 3522 ft | 93 kts | 110° |
| 2026-05-08 19:24 | 48.91408 | 8.80124 | 3452 ft | 93 kts | 114° |
| 2026-05-08 19:24 | 48.91156 | 8.81067 | 3479 ft | 95 kts | 103° |
| 2026-05-08 19:24 | 48.91021 | 8.82037 | 3581 ft | 91 kts | 98° |
| 2026-05-08 19:25 | 48.90946 | 8.83023 | 3611 ft | 95 kts | 93° |
| 2026-05-08 19:25 | 48.90886 | 8.83999 | 3707 ft | 94 kts | 98° |
| 2026-05-08 19:25 | 48.90662 | 8.84951 | 3668 ft | 101 kts | 114° |
| 2026-05-08 19:25 | 48.90340 | 8.85900 | 3714 ft | 99 kts | 117° |
| 2026-05-08 19:26 | 48.89969 | 8.86773 | 3777 ft | 97 kts | 124° |
| 2026-05-08 19:26 | 48.89484 | 8.87495 | 3780 ft | 99 kts | 139° |
| 2026-05-08 19:26 | 48.88916 | 8.88081 | 3844 ft | 98 kts | 146° |
| 2026-05-08 19:26 | 48.88293 | 8.88610 | 3772 ft | 107 kts | 149° |
| 2026-05-08 19:27 | 48.87633 | 8.89126 | 3759 ft | 106 kts | 144° |
| 2026-05-08 19:27 | 48.87017 | 8.89621 | 3852 ft | 99 kts | 152° |
| 2026-05-08 19:27 | 48.86364 | 8.89985 | 3815 ft | 101 kts | 160° |
| 2026-05-08 19:27 | 48.85675 | 8.90173 | 3777 ft | 101 kts | 169° |
| 2026-05-08 19:28 | 48.84998 | 8.90465 | 3762 ft | 101 kts | 162° |
| 2026-05-08 19:28 | 48.84322 | 8.90716 | 3761 ft | 100 kts | 158° |
| 2026-05-08 19:28 | 48.83712 | 8.91178 | 3772 ft | 96 kts | 140° |
| 2026-05-08 19:28 | 48.83208 | 8.91814 | 3786 ft | 93 kts | 136° |
| 2026-05-08 19:29 | 48.82646 | 8.92389 | 3660 ft | 101 kts | 147° |
| 2026-05-08 19:29 | 48.82018 | 8.92842 | 3662 ft | 97 kts | 150° |
| 2026-05-08 19:29 | 48.81384 | 8.93266 | 3582 ft | 102 kts | 153° |
| 2026-05-08 19:29 | 48.80714 | 8.93602 | 3584 ft | 101 kts | 160° |
| 2026-05-08 19:30 | 48.80039 | 8.93897 | 3593 ft | 100 kts | 158° |
| 2026-05-08 19:30 | 48.79375 | 8.94234 | 3562 ft | 102 kts | 154° |
| 2026-05-08 19:30 | 48.78728 | 8.94626 | 3513 ft | 100 kts | 152° |
| 2026-05-08 19:30 | 48.78172 | 8.95228 | 3456 ft | 95 kts | 125° |
| 2026-05-08 19:31 | 48.77909 | 8.96093 | 3403 ft | 91 kts | 100° |
| 2026-05-08 19:31 | 48.77886 | 8.97076 | 3323 ft | 92 kts | 82° |
| 2026-05-08 19:31 | 48.77996 | 8.98011 | 3317 ft | 91 kts | 81° |
| 2026-05-08 19:31 | 48.78075 | 8.98968 | 3243 ft | 92 kts | 85° |
| 2026-05-08 19:32 | 48.78031 | 8.99932 | 3189 ft | 93 kts | 99° |
| 2026-05-08 19:32 | 48.77773 | 9.00839 | 3128 ft | 96 kts | 117° |
| 2026-05-08 19:32 | 48.77429 | 9.01686 | 3113 ft | 93 kts | 114° |
| 2026-05-08 19:32 | 48.77098 | 9.02549 | 3026 ft | 96 kts | 120° |
| 2026-05-08 19:33 | 48.76585 | 9.03207 | 3024 ft | 100 kts | 148° |
| 2026-05-08 19:33 | 48.75941 | 9.03559 | 3046 ft | 98 kts | 161° |
| 2026-05-08 19:33 | 48.75224 | 9.03615 | 3017 ft | 107 kts | 181° |
| 2026-05-08 19:33 | 48.74512 | 9.03512 | 3072 ft | 98 kts | 167° |
| 2026-05-08 19:34 | 48.73915 | 9.03928 | 3065 ft | 92 kts | 133° |
| 2026-05-08 19:34 | 48.73451 | 9.04629 | 2971 ft | 96 kts | 127° |
| 2026-05-08 19:34 | 48.73034 | 9.05408 | 2930 ft | 94 kts | 123° |
| 2026-05-08 19:34 | 48.72692 | 9.06233 | 2869 ft | 95 kts | 111° |
| 2026-05-08 19:35 | 48.72413 | 9.07137 | 2832 ft | 94 kts | 116° |
| 2026-05-08 19:35 | 48.71974 | 9.07919 | 2705 ft | 103 kts | 135° |
| 2026-05-08 19:35 | 48.71408 | 9.08658 | 2493 ft | 105 kts | 126° |
| 2026-05-08 19:35 | 48.71055 | 9.09516 | 2428 ft | 92 kts | 112° |
| 2026-05-08 19:36 | 48.70743 | 9.10402 | 2172 ft | 98 kts | 108° |
| 2026-05-08 19:36 | 48.70535 | 9.11379 | 2141 ft | 96 kts | 103° |
| 2026-05-08 19:36 | 48.70390 | 9.12346 | 2156 ft | 97 kts | 97° |
| 2026-05-08 19:36 | 48.70173 | 9.13318 | 2191 ft | 99 kts | 117° |
| 2026-05-08 19:37 | 48.69749 | 9.14134 | 2229 ft | 100 kts | 128° |
| 2026-05-08 19:37 | 48.69231 | 9.14863 | 2229 ft | 103 kts | 136° |
| 2026-05-08 19:37 | 48.68639 | 9.15463 | 2221 ft | 99 kts | 143° |
| 2026-05-08 19:37 | 48.68136 | 9.16010 | 2115 ft | 79 kts | 128° |
| 2026-05-08 19:38 | 48.67931 | 9.16634 | 2001 ft | 61 kts | 91° |
| 2026-05-08 19:38 | 48.68026 | 9.17257 | 1877 ft | 63 kts | 68° |
| 2026-05-08 19:38 | 48.68176 | 9.17912 | 1745 ft | 68 kts | 70° |
| 2026-05-08 19:38 | 48.68316 | 9.18606 | 1628 ft | 69 kts | 71° |
| 2026-05-08 19:39 | 48.68440 | 9.19311 | 1520 ft | 70 kts | 71° |
| 2026-05-08 19:39 | 48.68574 | 9.19983 | 1389 ft | 63 kts | 70° |
| 2026-05-08 19:39 | 48.68694 | 9.20614 | 1282 ft | 57 kts | 72° |
| 2026-05-08 19:39 | 48.68776 | 9.21040 | 1279 ft | 27 kts | 63° |
| 2026-05-08 19:40 | 48.68840 | 9.21045 | 1279 ft | 10 kts | 264° |
| 2026-05-08 19:40 | 48.68841 | 9.20965 | 1279 ft | 3 kts | 282° |
| 2026-05-08 19:40 | 48.68850 | 9.20907 | 1279 ft | 8 kts | 283° |
| 2026-05-08 19:40 | 48.68864 | 9.20815 | 1279 ft | 9 kts | 283° |
| 2026-05-08 19:41 | 48.68899 | 9.20800 | 1279 ft | 10 kts | 54° |
| 2026-05-08 19:41 | 48.68914 | 9.20874 | 1279 ft | 0 kts | 70° |
| 2026-05-08 19:42 | 48.68916 | 9.20888 | 1279 ft | 5 kts | 75° |
| 2026-05-08 19:42 | 48.68931 | 9.20974 | 1279 ft | 11 kts | 76° |
| 2026-05-08 19:42 | 48.68954 | 9.21090 | 1279 ft | 9 kts | 71° |
| 2026-05-08 19:42 | 48.68970 | 9.21187 | 1279 ft | 10 kts | 69° |
| 2026-05-08 19:43 | 48.68986 | 9.21244 | 1279 ft | 2 kts | 65° |
| 2026-05-08 19:43 | 48.69037 | 9.21249 | 1279 ft | 10 kts | 308° |
| 2026-05-08 19:43 | 48.69049 | 9.21137 | 1279 ft | 12 kts | 272° |
| 2026-05-08 19:43 | 48.69095 | 9.21039 | 1279 ft | 12 kts | 330° |
| 2026-05-08 19:44 | 48.69144 | 9.21010 | 1279 ft | 0 kts | 356° |